Terminal Aerodrome Forecast
Issued by NWS St Louis, MO

Home | Current Version | Previous Version | Text Only | Print | Product List | Glossary On
Versions: 1 2 3 4 5 6 7 8 9 10 11 12 13 14 15 16 17 18 19 20 21 22 23 24 25 26
993
FTUS43 KLSX 020520
TAFCOU
TAF
KCOU 020520Z 0206/0306 32007KT P6SM OVC020
     FM021000 32007KT 5SM BR VCSH OVC008
     FM021500 32007KT P6SM OVC015
     FM030000 32006KT P6SM BKN035=

USA.gov is the U.S. government's official web portal to all federal, state and local government web resources and services.